Time;durP1;ratioP1;P1;durP2;ratioP2;P2;SDS_P1;SDS_P2;PMS_P1;PMS_P2;Temp;Humidity;BMP_temperature;BMP_pressure;BME280_temperature;BME280_humidity;BME280_pressure;Samples;Min_cycle;Max_cycle;Signal;HPM_P1;HPM_P2
2021/05/21 00:00:27;;;;;;;5.80;0.80;;;;;;;;;;5113051;28;20024;-83
2021/05/21 00:02:53;;;;;;;4.90;0.70;;;;;;;;;;5094807;28;20081;-80
2021/05/21 00:05:19;;;;;;;6.30;0.90;;;;;;;;;;5112825;28;20548;-79
2021/05/21 00:07:45;;;;;;;6.20;1.25;;;;;;;;;;5112934;28;20477;-80
2021/05/21 00:10:11;;;;;;;4.60;0.77;;;;;;;;;;5113034;28;20055;-78
2021/05/21 00:12:38;;;;;;;9.20;1.17;;;;;;;;;;5112771;28;20034;-78
2021/05/21 00:15:05;;;;;;;5.03;1.00;;;;;;;;;;5112847;28;20031;-80
2021/05/21 00:17:31;;;;;;;9.18;1.25;;;;;;;;;;5112801;28;20035;-79
2021/05/21 00:19:57;;;;;;;7.43;1.08;;;;;;;;;;5112634;28;20113;-80
2021/05/21 00:22:23;;;;;;;7.32;1.38;;;;;;;;;;5094617;28;20504;-82
2021/05/21 00:24:49;;;;;;;4.88;1.65;;;;;;;;;;5112872;28;20022;-83
2021/05/21 00:27:15;;;;;;;6.90;1.13;;;;;;;;;;5112748;28;20387;-80
2021/05/21 00:29:43;;;;;;;6.55;0.90;;;;;;;;;;5112575;28;20027;-82
2021/05/21 00:32:09;;;;;;;6.30;1.73;;;;;;;;;;5093994;28;20051;-79
2021/05/21 00:34:35;;;;;;;4.70;0.80;;;;;;;;;;5093888;28;20379;-78
2021/05/21 00:37:01;;;;;;;5.00;1.20;;;;;;;;;;5117076;28;20442;-81
2021/05/21 00:39:27;;;;;;;5.15;1.23;;;;;;;;;;5116791;28;20111;-78
2021/05/21 00:41:53;;;;;;;5.55;1.00;;;;;;;;;;5116754;28;20413;-80
2021/05/21 00:44:19;;;;;;;5.47;0.60;;;;;;;;;;5116902;28;20093;-79
2021/05/21 00:46:45;;;;;;;3.28;0.63;;;;;;;;;;5116457;28;20028;-78
2021/05/21 00:49:17;;;;;;;2.35;0.40;;;;;;;;;;5116585;28;20032;-78
2021/05/21 00:51:43;;;;;;;3.35;0.30;;;;;;;;;;5116157;28;20147;-83
2021/05/21 00:54:09;;;;;;;2.90;0.30;;;;;;;;;;5116505;28;20079;-84
2021/05/21 00:56:36;;;;;;;3.10;0.60;;;;;;;;;;5116196;28;20036;-77
2021/05/21 00:59:02;;;;;;;1.85;0.40;;;;;;;;;;5116451;28;20554;-82
2021/05/21 01:01:30;;;;;;;2.42;0.30;;;;;;;;;;5116352;28;20028;-82
2021/05/21 01:03:57;;;;;;;2.50;0.40;;;;;;;;;;5116400;28;20023;-83
2021/05/21 01:06:23;;;;;;;3.25;0.30;;;;;;;;;;5116351;28;20107;-78
2021/05/21 01:08:49;;;;;;;2.85;0.30;;;;;;;;;;5116090;28;20089;-80
2021/05/21 01:11:15;;;;;;;3.72;0.30;;;;;;;;;;5116356;28;20031;-85
2021/05/21 01:13:41;;;;;;;2.00;0.30;;;;;;;;;;5116023;28;20467;-83
2021/05/21 01:16:07;;;;;;;1.88;0.30;;;;;;;;;;5115941;28;20040;-78
2021/05/21 01:18:34;;;;;;;1.85;0.28;;;;;;;;;;5116031;28;20098;-78
2021/05/21 01:21:00;;;;;;;2.42;0.28;;;;;;;;;;5116091;28;20038;-78
2021/05/21 01:23:26;;;;;;;2.28;0.65;;;;;;;;;;5116073;28;20038;-78
2021/05/21 01:25:52;;;;;;;2.38;0.28;;;;;;;;;;5115580;28;20026;-83
2021/05/21 01:28:19;;;;;;;2.33;0.40;;;;;;;;;;5115834;28;20098;-81
2021/05/21 01:30:45;;;;;;;2.30;0.30;;;;;;;;;;5115708;28;20031;-78
2021/05/21 01:33:12;;;;;;;3.80;0.30;;;;;;;;;;5115152;28;20047;-78
2021/05/21 01:35:39;;;;;;;3.17;0.40;;;;;;;;;;5115732;28;20043;-80
2021/05/21 01:38:05;;;;;;;5.40;0.45;;;;;;;;;;5115492;28;20024;-77
2021/05/21 01:40:32;;;;;;;3.08;0.70;;;;;;;;;;5115542;28;20020;-77
2021/05/21 01:43:00;;;;;;;3.13;0.30;;;;;;;;;;5115390;28;20028;-77
2021/05/21 01:45:27;;;;;;;3.83;1.05;;;;;;;;;;5115618;28;20098;-83
2021/05/21 01:47:53;;;;;;;2.25;0.40;;;;;;;;;;5113792;28;20024;-83
2021/05/21 01:50:19;;;;;;;4.40;0.40;;;;;;;;;;5115321;28;20092;-77
2021/05/21 01:52:46;;;;;;;2.38;0.38;;;;;;;;;;5115080;28;20486;-80
2021/05/21 01:55:12;;;;;;;3.58;0.50;;;;;;;;;;5115405;28;20534;-81
2021/05/21 01:57:39;;;;;;;3.20;0.47;;;;;;;;;;5115212;28;20059;-77
2021/05/21 02:00:06;;;;;;;2.38;0.77;;;;;;;;;;5114817;28;20050;-82
2021/05/21 02:02:32;;;;;;;3.80;0.40;;;;;;;;;;5096686;28;20019;-81
2021/05/21 02:04:58;;;;;;;3.17;0.85;;;;;;;;;;5114873;28;20028;-80
2021/05/21 02:07:25;;;;;;;2.47;0.47;;;;;;;;;;5115257;28;20081;-79
2021/05/21 02:09:58;;;;;;;3.38;0.35;;;;;;;;;;5114840;28;20023;-81
2021/05/21 02:12:24;;;;;;;3.45;1.02;;;;;;;;;;5096550;28;20028;-80
2021/05/21 02:14:51;;;;;;;4.00;0.60;;;;;;;;;;5114577;28;20066;-80
2021/05/21 02:17:17;;;;;;;2.60;0.32;;;;;;;;;;5114550;28;20020;-83
2021/05/21 02:19:43;;;;;;;4.82;0.50;;;;;;;;;;5114809;28;20055;-78
2021/05/21 02:22:09;;;;;;;3.15;0.40;;;;;;;;;;5114610;28;20026;-78
2021/05/21 02:24:36;;;;;;;3.20;0.82;;;;;;;;;;5114945;28;20047;-81
2021/05/21 02:27:02;;;;;;;1.90;0.40;;;;;;;;;;5096243;28;20114;-78
2021/05/21 02:29:28;;;;;;;1.52;0.40;;;;;;;;;;5114614;28;20023;-81
2021/05/21 02:31:55;;;;;;;1.40;0.40;;;;;;;;;;5095965;28;20023;-77
2021/05/21 02:34:21;;;;;;;1.70;0.30;;;;;;;;;;5095790;28;20395;-79
2021/05/21 02:36:47;;;;;;;3.28;0.65;;;;;;;;;;5114623;28;20020;-78
2021/05/21 02:39:13;;;;;;;3.72;1.08;;;;;;;;;;5114264;28;20027;-80
2021/05/21 02:41:39;;;;;;;2.80;0.38;;;;;;;;;;5114531;28;20148;-78
2021/05/21 02:44:05;;;;;;;4.03;0.60;;;;;;;;;;5095856;28;20031;-81
2021/05/21 02:46:31;;;;;;;3.63;0.40;;;;;;;;;;5114224;28;20019;-77
2021/05/21 02:48:58;;;;;;;1.42;0.63;;;;;;;;;;5114009;28;20020;-79
2021/05/21 02:51:24;;;;;;;3.17;0.70;;;;;;;;;;5114138;28;20493;-77
2021/05/21 02:53:50;;;;;;;3.28;0.30;;;;;;;;;;5114146;28;20102;-77
2021/05/21 02:56:16;;;;;;;2.08;0.30;;;;;;;;;;5114013;28;20046;-78
2021/05/21 02:58:42;;;;;;;3.42;0.57;;;;;;;;;;5113583;28;20038;-80
2021/05/21 03:01:08;;;;;;;5.10;0.70;;;;;;;;;;5113756;28;20397;-81
2021/05/21 03:03:34;;;;;;;2.97;0.77;;;;;;;;;;5113876;28;20031;-80
2021/05/21 03:06:00;;;;;;;7.28;2.45;;;;;;;;;;5113534;28;20024;-78
2021/05/21 03:08:26;;;;;;;4.38;2.33;;;;;;;;;;5113807;28;20032;-78
2021/05/21 03:10:53;;;;;;;3.65;1.00;;;;;;;;;;5113842;28;20027;-79
2021/05/21 03:13:20;;;;;;;2.92;0.50;;;;;;;;;;5113469;28;20031;-81
2021/05/21 03:15:47;;;;;;;2.55;0.40;;;;;;;;;;5113521;28;20043;-80
2021/05/21 03:18:14;;;;;;;3.58;1.30;;;;;;;;;;5113393;28;20035;-77
2021/05/21 03:20:41;;;;;;;7.30;0.65;;;;;;;;;;5113830;28;20039;-78
2021/05/21 03:23:08;;;;;;;4.82;0.50;;;;;;;;;;5113413;28;20046;-79
2021/05/21 03:25:34;;;;;;;1.90;0.40;;;;;;;;;;5113642;28;20107;-78
2021/05/21 03:28:00;;;;;;;3.63;0.50;;;;;;;;;;5113391;28;20194;-77
2021/05/21 03:30:26;;;;;;;4.18;0.40;;;;;;;;;;5113261;28;20024;-76
2021/05/21 03:32:53;;;;;;;1.70;1.00;;;;;;;;;;5113223;28;20047;-79
2021/05/21 03:35:19;;;;;;;0.45;0.30;;;;;;;;;;5113177;28;20023;-79
2021/05/21 03:37:46;;;;;;;2.33;0.40;;;;;;;;;;5113257;28;20098;-79
2021/05/21 03:40:13;;;;;;;5.13;0.75;;;;;;;;;;5094567;28;20027;-77
2021/05/21 03:42:39;;;;;;;2.38;0.30;;;;;;;;;;5113322;28;20443;-82
2021/05/21 03:45:06;;;;;;;2.10;0.28;;;;;;;;;;5113060;28;20027;-79
2021/05/21 03:47:33;;;;;;;1.02;0.30;;;;;;;;;;5094853;28;20027;-83
2021/05/21 03:49:59;;;;;;;1.67;0.30;;;;;;;;;;5113093;28;20028;-78
2021/05/21 03:52:26;;;;;;;2.05;0.70;;;;;;;;;;5112884;28;20145;-80
2021/05/21 03:54:52;;;;;;;2.45;0.20;;;;;;;;;;5112952;28;20027;-79
2021/05/21 03:57:20;;;;;;;2.38;0.40;;;;;;;;;;5094408;28;20042;-79
2021/05/21 03:59:47;;;;;;;2.25;0.50;;;;;;;;;;5112961;28;20016;-80
2021/05/21 04:02:13;;;;;;;1.17;0.30;;;;;;;;;;5112718;28;20054;-80
2021/05/21 04:04:39;;;;;;;1.63;0.60;;;;;;;;;;5094509;28;20027;-77
2021/05/21 04:07:05;;;;;;;3.13;0.40;;;;;;;;;;5112962;28;20443;-80
2021/05/21 04:09:31;;;;;;;2.40;0.50;;;;;;;;;;5111952;28;20463;-81
2021/05/21 04:11:58;;;;;;;3.53;0.80;;;;;;;;;;5112917;28;20023;-81
2021/05/21 04:14:24;;;;;;;1.60;0.43;;;;;;;;;;5112363;28;20085;-78
2021/05/21 04:16:50;;;;;;;2.65;1.15;;;;;;;;;;5113004;28;20027;-79
2021/05/21 04:19:16;;;;;;;9.45;4.65;;;;;;;;;;5094293;28;20493;-82
2021/05/21 04:21:42;;;;;;;14.02;6.50;;;;;;;;;;5112936;28;20419;-81
2021/05/21 04:24:08;;;;;;;1.35;0.45;;;;;;;;;;5112742;28;20080;-78
2021/05/21 04:26:35;;;;;;;7.57;4.53;;;;;;;;;;5112401;28;20024;-79
2021/05/21 04:29:01;;;;;;;2.72;0.65;;;;;;;;;;5112732;28;20059;-81
2021/05/21 04:31:27;;;;;;;3.03;0.50;;;;;;;;;;5112424;28;20104;-81
2021/05/21 04:33:53;;;;;;;2.00;0.40;;;;;;;;;;5112372;28;20058;-80
2021/05/21 04:36:20;;;;;;;2.22;0.50;;;;;;;;;;5112516;28;20036;-79
2021/05/21 04:38:47;;;;;;;3.58;0.82;;;;;;;;;;5112732;28;20023;-82
2021/05/21 04:41:13;;;;;;;2.85;0.60;;;;;;;;;;5112687;28;20024;-79
2021/05/21 04:43:39;;;;;;;2.00;0.50;;;;;;;;;;5112373;28;20031;-79
2021/05/21 04:46:06;;;;;;;3.83;0.65;;;;;;;;;;5112608;28;20023;-80
2021/05/21 04:48:32;;;;;;;4.45;0.70;;;;;;;;;;5112509;28;20031;-81
2021/05/21 04:50:59;;;;;;;2.03;0.55;;;;;;;;;;5112672;28;20028;-80
2021/05/21 04:53:25;;;;;;;3.28;1.58;;;;;;;;;;5112303;28;20024;-76
2021/05/21 04:55:51;;;;;;;3.03;0.50;;;;;;;;;;5112469;28;20070;-80
2021/05/21 04:58:17;;;;;;;3.90;0.50;;;;;;;;;;5094124;28;20152;-78
2021/05/21 05:00:44;;;;;;;2.05;0.55;;;;;;;;;;5112248;28;20032;-79
2021/05/21 05:03:12;;;;;;;3.53;0.70;;;;;;;;;;5112168;28;20055;-80
2021/05/21 05:05:39;;;;;;;2.33;0.50;;;;;;;;;;5112336;28;20027;-80
2021/05/21 05:08:05;;;;;;;3.40;0.75;;;;;;;;;;5112430;28;20074;-78
2021/05/21 05:10:31;;;;;;;4.20;0.80;;;;;;;;;;5111957;28;20390;-79
2021/05/21 05:12:57;;;;;;;4.80;1.20;;;;;;;;;;5112276;28;20024;-80
2021/05/21 05:15:24;;;;;;;4.40;0.93;;;;;;;;;;5112001;28;20390;-79
2021/05/21 05:17:51;;;;;;;4.07;0.90;;;;;;;;;;5112118;28;20031;-79
2021/05/21 05:20:21;;;;;;;4.53;1.00;;;;;;;;;;5111908;28;20020;-79
2021/05/21 05:22:48;;;;;;;4.05;1.10;;;;;;;;;;5115271;28;20023;-79
2021/05/21 05:25:14;;;;;;;2.90;0.90;;;;;;;;;;5115686;28;20034;-78
2021/05/21 05:27:40;;;;;;;3.63;1.15;;;;;;;;;;5115335;28;20020;-79
2021/05/21 05:30:06;;;;;;;5.25;1.23;;;;;;;;;;5110996;28;20024;-76
2021/05/21 05:32:32;;;;;;;3.10;1.30;;;;;;;;;;5104731;27;20122;-78
2021/05/21 05:34:59;;;;;;;6.35;1.48;;;;;;;;;;5106878;27;20045;-77
2021/05/21 05:37:25;;;;;;;4.32;1.75;;;;;;;;;;5132031;27;20474;-79
2021/05/21 05:39:51;;;;;;;6.00;1.20;;;;;;;;;;5106366;27;20054;-82
2021/05/21 05:42:17;;;;;;;3.10;1.30;;;;;;;;;;5093337;28;20024;-79
2021/05/21 05:44:43;;;;;;;2.70;1.27;;;;;;;;;;5093931;28;20056;-79
2021/05/21 05:47:09;;;;;;;4.40;1.80;;;;;;;;;;5093617;28;20670;-79
2021/05/21 05:49:36;;;;;;;3.55;1.48;;;;;;;;;;5093295;28;20483;-82
2021/05/21 05:52:02;;;;;;;5.78;1.33;;;;;;;;;;5108557;28;20039;-79
2021/05/21 05:54:28;;;;;;;3.92;1.20;;;;;;;;;;5113393;28;20031;-83
2021/05/21 05:56:54;;;;;;;2.83;1.23;;;;;;;;;;5113997;28;20039;-79
2021/05/21 05:59:20;;;;;;;3.05;1.45;;;;;;;;;;5113838;28;20020;-81
2021/05/21 06:01:46;;;;;;;7.10;1.63;;;;;;;;;;5113038;28;20097;-80
2021/05/21 06:04:13;;;;;;;2.95;1.10;;;;;;;;;;5113878;28;20067;-79
2021/05/21 06:06:39;;;;;;;2.65;1.13;;;;;;;;;;5114987;28;20402;-79
2021/05/21 06:09:08;;;;;;;5.35;1.80;;;;;;;;;;5111738;28;20478;-81
2021/05/21 06:11:34;;;;;;;2.72;1.45;;;;;;;;;;5114275;28;20040;-82
2021/05/21 06:14:00;;;;;;;3.58;1.90;;;;;;;;;;5114952;28;20147;-81
2021/05/21 06:16:26;;;;;;;4.22;1.95;;;;;;;;;;5114288;28;20048;-83
2021/05/21 06:18:52;;;;;;;2.25;1.63;;;;;;;;;;5095069;28;20028;-84
2021/05/21 06:21:19;;;;;;;3.88;1.95;;;;;;;;;;5075204;28;20124;-86
2021/05/21 06:23:45;;;;;;;4.03;2.17;;;;;;;;;;5076140;28;20024;-83
2021/05/21 06:26:28;;;;;;;2.55;2.35;;;;;;;;;;5093911;28;20024;-82
2021/05/21 06:28:54;;;;;;;5.20;2.90;;;;;;;;;;5094563;28;20520;-84
2021/05/21 06:31:21;;;;;;;5.32;2.85;;;;;;;;;;5133849;27;20117;-84
2021/05/21 06:33:47;;;;;;;4.53;3.08;;;;;;;;;;5133706;27;20059;-82
2021/05/21 06:36:13;;;;;;;4.82;3.88;;;;;;;;;;5135217;27;20031;-79
2021/05/21 06:38:40;;;;;;;4.45;3.47;;;;;;;;;;5135057;27;20435;-81
2021/05/21 06:41:06;;;;;;;4.47;4.00;;;;;;;;;;5135261;27;20474;-80
2021/05/21 06:43:33;;;;;;;6.03;4.00;;;;;;;;;;5134806;27;20027;-79
2021/05/21 06:45:59;;;;;;;4.40;4.00;;;;;;;;;;5135010;27;20033;-79
2021/05/21 06:48:32;;;;;;;4.10;3.70;;;;;;;;;;5116495;27;20034;-79
2021/05/21 06:50:59;;;;;;;4.00;3.60;;;;;;;;;;5134989;27;20016;-81
2021/05/21 06:53:26;;;;;;;4.30;3.90;;;;;;;;;;5134445;27;20046;-80
2021/05/21 06:55:53;;;;;;;4.00;3.60;;;;;;;;;;5134413;27;20043;-79
2021/05/21 06:58:19;;;;;;;4.93;3.90;;;;;;;;;;5133827;27;20109;-87
2021/05/21 07:00:47;;;;;;;6.82;4.57;;;;;;;;;;5134576;27;20090;-84
2021/05/21 07:03:13;;;;;;;5.25;3.78;;;;;;;;;;5134583;27;20087;-83
2021/05/21 07:05:40;;;;;;;4.15;3.75;;;;;;;;;;5134250;27;20090;-74
2021/05/21 07:08:07;;;;;;;3.90;3.50;;;;;;;;;;5113278;28;20490;-78
2021/05/21 07:10:33;;;;;;;4.25;3.10;;;;;;;;;;5113235;28;20024;-81
2021/05/21 07:13:18;;;;;;;3.97;3.10;;;;;;;;;;5113871;28;20016;-78
2021/05/21 07:15:44;;;;;;;;;;;;;;;;;;5095429;28;20521;-81
2021/05/21 07:18:10;;;;;;;4.68;3.10;;;;;;;;;;5113499;28;19904;-79
2021/05/21 07:20:37;;;;;;;5.18;3.55;;;;;;;;;;5113012;28;20034;-79
2021/05/21 07:23:03;;;;;;;4.00;3.60;;;;;;;;;;5095063;28;20055;-79
2021/05/21 07:25:29;;;;;;;4.07;3.50;;;;;;;;;;5094642;28;20035;-79
2021/05/21 07:27:55;;;;;;;4.47;3.85;;;;;;;;;;5112945;28;20042;-78
2021/05/21 07:30:22;;;;;;;5.70;3.55;;;;;;;;;;5094741;28;20066;-78
2021/05/21 07:32:48;;;;;;;3.83;3.35;;;;;;;;;;5112743;28;20480;-81
2021/05/21 07:35:15;;;;;;;5.63;3.10;;;;;;;;;;5113025;28;20020;-78
2021/05/21 07:37:44;;;;;;;7.57;3.80;;;;;;;;;;5113677;28;20412;-80
2021/05/21 07:40:11;;;;;;;3.58;3.28;;;;;;;;;;5113176;28;20238;-79
2021/05/21 07:42:38;;;;;;;6.18;3.40;;;;;;;;;;5105419;28;20031;-79
2021/05/21 07:45:07;;;;;;;5.20;3.72;;;;;;;;;;5092494;28;20069;-80
2021/05/21 07:47:34;;;;;;;3.50;3.20;;;;;;;;;;5111082;28;20027;-81
2021/05/21 07:50:00;;;;;;;5.68;4.00;;;;;;;;;;5112067;28;20035;-77
2021/05/21 07:52:26;;;;;;;3.72;3.40;;;;;;;;;;5111806;28;20028;-77
2021/05/21 07:54:52;;;;;;;6.75;5.00;;;;;;;;;;5111697;28;20035;-78
2021/05/21 07:57:18;;;;;;;7.15;5.03;;;;;;;;;;5111462;28;20491;-79
2021/05/21 07:59:44;;;;;;;4.28;3.97;;;;;;;;;;5111897;28;20015;-82
2021/05/21 08:02:11;;;;;;;7.70;4.72;;;;;;;;;;5111521;28;20028;-79
2021/05/21 08:04:37;;;;;;;6.07;5.03;;;;;;;;;;5112021;28;20505;-79
2021/05/21 08:07:03;;;;;;;4.20;3.80;;;;;;;;;;5111461;28;20019;-80
2021/05/21 08:09:30;;;;;;;4.15;3.75;;;;;;;;;;5111359;28;20041;-81
2021/05/21 08:11:56;;;;;;;4.18;3.67;;;;;;;;;;5111399;28;20693;-81
2021/05/21 08:14:22;;;;;;;4.00;3.40;;;;;;;;;;5111658;28;20613;-83
2021/05/21 08:16:48;;;;;;;4.47;3.78;;;;;;;;;;5111246;28;20111;-81
2021/05/21 08:19:15;;;;;;;5.90;4.32;;;;;;;;;;5111350;28;20027;-81
2021/05/21 08:21:41;;;;;;;5.45;4.07;;;;;;;;;;5111251;28;20032;-77
2021/05/21 08:24:07;;;;;;;3.72;2.97;;;;;;;;;;5111423;28;20024;-79
2021/05/21 08:26:33;;;;;;;4.45;4.05;;;;;;;;;;5111638;28;20016;-79
2021/05/21 08:28:59;;;;;;;4.03;3.72;;;;;;;;;;5110697;28;20038;-77
2021/05/21 08:31:26;;;;;;;4.10;3.70;;;;;;;;;;5111391;28;20028;-81
2021/05/21 08:33:53;;;;;;;3.95;3.40;;;;;;;;;;5093016;28;20052;-80
2021/05/21 08:36:21;;;;;;;4.57;3.25;;;;;;;;;;5111280;28;20032;-78
2021/05/21 08:38:47;;;;;;;3.50;3.20;;;;;;;;;;5092767;28;20028;-84
2021/05/21 08:41:17;;;;;;;6.55;4.00;;;;;;;;;;5110993;28;20024;-81
2021/05/21 08:43:46;;;;;;;3.90;3.08;;;;;;;;;;5111187;28;20016;-83
2021/05/21 08:46:13;;;;;;;6.65;3.78;;;;;;;;;;5111135;28;20031;-78
2021/05/21 08:48:40;;;;;;;5.05;3.17;;;;;;;;;;5111183;28;20497;-78
2021/05/21 08:51:08;;;;;;;5.72;4.10;;;;;;;;;;5110869;28;20032;-82
2021/05/21 08:53:34;;;;;;;4.78;4.18;;;;;;;;;;5111254;28;20063;-82
2021/05/21 08:56:01;;;;;;;4.93;4.13;;;;;;;;;;5111736;28;20418;-78
2021/05/21 08:58:27;;;;;;;5.07;3.85;;;;;;;;;;5114802;28;20080;-76
2021/05/21 09:00:54;;;;;;;4.45;4.00;;;;;;;;;;5115020;28;20490;-77
2021/05/21 09:03:25;;;;;;;5.43;3.40;;;;;;;;;;5114959;28;20075;-78
2021/05/21 09:06:04;;;;;;;4.85;3.63;;;;;;;;;;5114827;28;20110;-77
2021/05/21 09:08:50;;;;;;;4.95;3.50;;;;;;;;;;5114777;28;20023;-78
2021/05/21 09:11:34;;;;;;;6.03;3.33;;;;;;;;;;5114520;28;20028;-79
2021/05/21 09:14:07;;;;;;;3.15;2.85;;;;;;;;;;5114624;28;20030;-78
2021/05/21 09:16:37;;;;;;;3.67;3.08;;;;;;;;;;5096542;28;20036;-80
2021/05/21 09:19:04;;;;;;;5.25;3.20;;;;;;;;;;5114763;28;20020;-78
2021/05/21 09:21:50;;;;;;;5.53;3.65;;;;;;;;;;5114648;28;20106;-80
2021/05/21 09:24:17;;;;;;;3.42;2.75;;;;;;;;;;5114191;28;20462;-79
2021/05/21 09:26:44;;;;;;;4.07;3.35;;;;;;;;;;5114672;28;20471;-77
2021/05/21 09:29:13;;;;;;;4.30;3.35;;;;;;;;;;5113905;28;20028;-79
2021/05/21 09:31:47;;;;;;;8.15;3.60;;;;;;;;;;5114722;28;20479;-78
2021/05/21 09:34:14;;;;;;;4.45;3.05;;;;;;;;;;5113830;28;20086;-79
2021/05/21 09:36:42;;;;;;;3.47;2.97;;;;;;;;;;5114535;28;20150;-81
2021/05/21 09:39:12;;;;;;;4.40;2.90;;;;;;;;;;5114260;28;20024;-77
2021/05/21 09:41:46;;;;;;;3.30;3.00;;;;;;;;;;5111032;28;20027;-80
2021/05/21 09:44:12;;;;;;;4.88;4.03;;;;;;;;;;5113481;28;20107;-80
2021/05/21 09:46:40;;;;;;;5.40;4.38;;;;;;;;;;5113443;28;20027;-79
2021/05/21 09:49:35;;;;;;;4.93;3.10;;;;;;;;;;5113830;28;20111;-82
2021/05/21 09:52:03;;;;;;;4.15;3.28;;;;;;;;;;5092465;28;20043;-78
2021/05/21 09:54:47;;;;;;;4.45;4.05;;;;;;;;;;5101126;28;20497;-78
2021/05/21 09:57:13;;;;;;;4.15;3.75;;;;;;;;;;5093422;28;20082;-79
2021/05/21 09:59:48;;;;;;;4.10;3.42;;;;;;;;;;5093506;28;20428;-81
2021/05/21 10:02:18;;;;;;;13.02;10.90;;;;;;;;;;5093084;28;20028;-82
2021/05/21 10:04:45;;;;;;;4.18;3.83;;;;;;;;;;5110565;28;20024;-79
2021/05/21 10:07:11;;;;;;;3.38;3.08;;;;;;;;;;5112173;28;20462;-78
2021/05/21 10:09:38;;;;;;;4.78;3.47;;;;;;;;;;5112032;28;20019;-80
2021/05/21 10:12:05;;;;;;;4.13;3.38;;;;;;;;;;5106286;28;20432;-78
2021/05/21 10:14:32;;;;;;;4.18;3.78;;;;;;;;;;5112788;28;20106;-78
2021/05/21 10:16:59;;;;;;;8.63;5.63;;;;;;;;;;5113298;28;20471;-82
2021/05/21 10:19:26;;;;;;;4.90;2.97;;;;;;;;;;5113272;28;20027;-78
2021/05/21 10:21:55;;;;;;;3.30;3.00;;;;;;;;;;5113670;28;20059;-77
2021/05/21 10:24:28;;;;;;;4.45;3.40;;;;;;;;;;5133519;27;20035;-79
2021/05/21 10:26:56;;;;;;;3.95;3.20;;;;;;;;;;5113512;27;20132;-78
2021/05/21 10:29:24;;;;;;;3.80;3.40;;;;;;;;;;5107629;28;20048;-78
2021/05/21 10:31:51;;;;;;;3.33;3.03;;;;;;;;;;5109834;28;20039;-79
2021/05/21 10:34:18;;;;;;;4.32;3.22;;;;;;;;;;5110934;28;20196;-77
2021/05/21 10:36:45;;;;;;;3.28;2.90;;;;;;;;;;5112116;28;20378;-79
2021/05/21 10:39:13;;;;;;;5.20;2.85;;;;;;;;;;5111822;28;20367;-75
2021/05/21 10:41:49;;;;;;;5.22;2.90;;;;;;;;;;5110130;28;20020;-78
2021/05/21 10:44:20;;;;;;;2.70;2.50;;;;;;;;;;5099809;28;20111;-78
2021/05/21 10:46:47;;;;;;;3.53;2.70;;;;;;;;;;5099782;28;20110;-76
2021/05/21 10:49:30;;;;;;;3.85;3.42;;;;;;;;;;5108227;27;20016;-77
2021/05/21 10:51:57;;;;;;;4.90;2.90;;;;;;;;;;5098179;28;20086;-77
2021/05/21 10:54:34;;;;;;;5.70;2.78;;;;;;;;;;5101292;28;20136;-76
2021/05/21 10:57:10;;;;;;;4.25;2.42;;;;;;;;;;5107617;27;20121;-79
2021/05/21 11:00:00;;;;;;;3.03;2.60;;;;;;;;;;5094388;28;20036;-77
2021/05/21 11:02:27;;;;;;;3.95;3.08;;;;;;;;;;5079707;28;20032;-79
2021/05/21 11:04:54;;;;;;;4.35;2.80;;;;;;;;;;5094393;28;20058;-76
2021/05/21 11:07:39;;;;;;;3.03;2.50;;;;;;;;;;5099901;27;20028;-77
2021/05/21 11:10:05;;;;;;;;;;;;;;;;;;5103179;28;20028;-76
2021/05/21 11:13:04;;;;;;;5.22;2.88;;;;;;;;;;5100730;28;19915;-77
2021/05/21 11:15:34;;;;;;;4.30;2.70;;;;;;;;;;5101290;27;20056;-75
2021/05/21 11:18:19;;;;;;;4.18;3.47;;;;;;;;;;5098994;28;20116;-77
2021/05/21 11:21:04;;;;;;;3.00;2.80;;;;;;;;;;5098754;28;20074;-75
2021/05/21 11:23:49;;;;;;;3.75;2.20;;;;;;;;;;5098572;27;20016;-75
2021/05/21 11:26:19;;;;;;;3.38;3.08;;;;;;;;;;5103386;27;20030;-74
2021/05/21 11:28:48;;;;;;;3.15;2.58;;;;;;;;;;5101876;28;20063;-76
2021/05/21 11:31:16;;;;;;;3.83;3.05;;;;;;;;;;5100919;28;20067;-79
2021/05/21 11:33:48;;;;;;;4.05;2.58;;;;;;;;;;5105069;28;20675;-76
2021/05/21 11:36:14;;;;;;;3.15;2.88;;;;;;;;;;5102351;28;20124;-76
2021/05/21 11:38:41;;;;;;;11.63;3.35;;;;;;;;;;5106495;28;20095;-78
2021/05/21 11:41:08;;;;;;;4.40;2.05;;;;;;;;;;5108200;28;20032;-78
2021/05/21 11:43:38;;;;;;;2.78;2.50;;;;;;;;;;5111677;28;20157;-77
2021/05/21 11:46:05;;;;;;;2.83;2.28;;;;;;;;;;5111914;28;20051;-76
2021/05/21 11:48:51;;;;;;;3.75;2.45;;;;;;;;;;5104907;28;20028;-76
2021/05/21 11:51:24;;;;;;;5.30;2.72;;;;;;;;;;5091086;28;20028;-79
2021/05/21 11:53:54;;;;;;;2.67;2.47;;;;;;;;;;5093260;28;20474;-77
2021/05/21 11:56:31;;;;;;;3.15;2.60;;;;;;;;;;5110551;28;20054;-77
2021/05/21 11:58:58;;;;;;;3.95;2.70;;;;;;;;;;5111074;28;20482;-78
2021/05/21 12:01:24;;;;;;;5.28;2.70;;;;;;;;;;5105045;28;20432;-76
2021/05/21 12:03:50;;;;;;;7.05;2.90;;;;;;;;;;5095481;28;20036;-78
2021/05/21 12:06:16;;;;;;;3.75;2.88;;;;;;;;;;5097597;28;20024;-76
2021/05/21 12:08:49;;;;;;;3.70;3.10;;;;;;;;;;5096764;28;20035;-82
2021/05/21 12:11:18;;;;;;;10.65;3.58;;;;;;;;;;5111598;28;20030;-78
2021/05/21 12:13:44;;;;;;;3.90;2.70;;;;;;;;;;5111070;28;20030;-83
2021/05/21 12:18:40;;;;;;;4.80;3.10;;;;;;;;;;5100310;28;20032;-78
2021/05/21 12:21:06;;;;;;;3.80;3.30;;;;;;;;;;5097188;28;20446;-76
2021/05/21 12:23:35;;;;;;;3.47;3.05;;;;;;;;;;5099310;28;20075;-76
2021/05/21 12:26:02;;;;;;;5.93;3.53;;;;;;;;;;5106023;28;20090;-78
2021/05/21 12:28:29;;;;;;;3.45;3.05;;;;;;;;;;5106814;28;20036;-77
2021/05/21 12:30:57;;;;;;;5.22;3.30;;;;;;;;;;5096287;28;20032;-76
2021/05/21 12:33:23;;;;;;;6.22;3.90;;;;;;;;;;5097452;28;20044;-80
2021/05/21 12:35:50;;;;;;;4.00;2.70;;;;;;;;;;5095637;28;20063;-78
2021/05/21 12:38:19;;;;;;;3.75;3.10;;;;;;;;;;5102239;28;20056;-78
2021/05/21 12:40:52;;;;;;;7.13;2.90;;;;;;;;;;5094594;28;20402;-81
2021/05/21 12:43:18;;;;;;;6.50;3.08;;;;;;;;;;5094648;28;20028;-79
2021/05/21 12:46:03;;;;;;;10.23;9.20;;;;;;;;;;5094902;28;20039;-83
2021/05/21 12:48:34;;;;;;;3.20;2.90;;;;;;;;;;5106717;28;20015;-82
2021/05/21 12:51:18;;;;;;;2.97;2.55;;;;;;;;;;5114775;28;20023;-77
2021/05/21 12:53:45;;;;;;;3.28;2.92;;;;;;;;;;5114926;28;20110;-79
2021/05/21 12:56:27;;;;;;;4.25;2.42;;;;;;;;;;5104086;28;20531;-78
2021/05/21 12:58:53;;;;;;;2.50;2.30;;;;;;;;;;5113922;28;20077;-79
2021/05/21 13:01:19;;;;;;;3.80;2.60;;;;;;;;;;5097219;28;20039;-78
2021/05/21 13:03:49;;;;;;;4.18;2.55;;;;;;;;;;5098352;28;20051;-78
2021/05/21 13:06:16;;;;;;;6.60;3.20;;;;;;;;;;5100908;28;20470;-78
2021/05/21 13:08:47;;;;;;;4.18;2.83;;;;;;;;;;5097517;28;20024;-76
2021/05/21 13:11:14;;;;;;;2.83;2.30;;;;;;;;;;5115621;28;20069;-75
2021/05/21 13:13:40;;;;;;;5.95;2.90;;;;;;;;;;5107913;28;20031;-80
2021/05/21 13:16:06;;;;;;;3.35;2.90;;;;;;;;;;5095102;28;20144;-77
2021/05/21 13:18:32;;;;;;;2.75;2.50;;;;;;;;;;5095274;28;20019;-78
2021/05/21 13:21:06;;;;;;;2.40;2.20;;;;;;;;;;5076980;28;20504;-77
2021/05/21 13:23:32;;;;;;;3.05;2.53;;;;;;;;;;5095385;28;20035;-77
2021/05/21 13:26:01;;;;;;;2.53;2.33;;;;;;;;;;5095303;28;20020;-77
2021/05/21 13:28:28;;;;;;;4.63;2.75;;;;;;;;;;5095067;28;20024;-76
2021/05/21 13:30:54;;;;;;;3.10;2.75;;;;;;;;;;5095041;28;20054;-77
2021/05/21 13:33:20;;;;;;;3.85;2.70;;;;;;;;;;5094711;28;20519;-78
2021/05/21 13:35:46;;;;;;;2.40;2.20;;;;;;;;;;5095148;28;20036;-77
2021/05/21 13:38:13;;;;;;;2.80;2.50;;;;;;;;;;5095083;28;20028;-77
2021/05/21 13:40:39;;;;;;;4.72;4.18;;;;;;;;;;5095303;28;20115;-76
2021/05/21 13:43:05;;;;;;;4.90;4.05;;;;;;;;;;5094802;28;20020;-79
2021/05/21 13:45:32;;;;;;;3.22;1.98;;;;;;;;;;5095039;28;20123;-78
2021/05/21 13:47:58;;;;;;;3.10;2.33;;;;;;;;;;5076850;28;20389;-77
2021/05/21 13:50:24;;;;;;;2.38;2.00;;;;;;;;;;5094684;28;20089;-77
2021/05/21 13:52:50;;;;;;;2.60;2.00;;;;;;;;;;5094827;28;20039;-77
2021/05/21 13:55:16;;;;;;;3.53;2.30;;;;;;;;;;5094637;28;20071;-77
2021/05/21 13:57:42;;;;;;;3.67;2.50;;;;;;;;;;5094352;28;20378;-80
2021/05/21 14:00:09;;;;;;;2.45;2.25;;;;;;;;;;5094557;28;20059;-83
2021/05/21 14:02:35;;;;;;;5.10;2.90;;;;;;;;;;5094430;28;20028;-80
2021/05/21 14:05:01;;;;;;;8.50;6.15;;;;;;;;;;5094576;28;20375;-78
2021/05/21 14:07:29;;;;;;;3.33;2.50;;;;;;;;;;5094515;28;20024;-77
2021/05/21 14:09:55;;;;;;;3.42;2.38;;;;;;;;;;5094613;28;20031;-77
2021/05/21 14:12:23;;;;;;;3.65;2.42;;;;;;;;;;5094483;28;20386;-81
2021/05/21 14:14:49;;;;;;;2.33;1.60;;;;;;;;;;5094321;28;20035;-80
2021/05/21 14:17:15;;;;;;;2.80;1.88;;;;;;;;;;5094415;28;20028;-76
2021/05/21 14:19:46;;;;;;;3.05;2.10;;;;;;;;;;5094170;28;20024;-82
2021/05/21 14:22:14;;;;;;;3.72;1.90;;;;;;;;;;5094157;28;20028;-77
2021/05/21 14:24:40;;;;;;;3.33;2.67;;;;;;;;;;5093957;28;20085;-78
2021/05/21 14:27:07;;;;;;;3.95;2.35;;;;;;;;;;5094190;28;20020;-79
2021/05/21 14:29:33;;;;;;;1.85;1.30;;;;;;;;;;5075706;28;20048;-78
2021/05/21 14:32:00;;;;;;;1.58;1.08;;;;;;;;;;5093961;28;20027;-77
2021/05/21 14:34:26;;;;;;;3.08;1.75;;;;;;;;;;5093644;28;20407;-79
2021/05/21 14:36:53;;;;;;;1.90;1.35;;;;;;;;;;5093892;28;20036;-80
2021/05/21 14:39:19;;;;;;;3.22;1.23;;;;;;;;;;5093788;28;20411;-76
2021/05/21 14:41:46;;;;;;;2.85;1.80;;;;;;;;;;5093825;28;20467;-76
2021/05/21 14:44:12;;;;;;;2.90;2.15;;;;;;;;;;5093686;28;20024;-77
2021/05/21 14:46:39;;;;;;;6.28;1.60;;;;;;;;;;5093701;28;20103;-80
2021/05/21 14:49:06;;;;;;;4.07;1.88;;;;;;;;;;5093533;28;20060;-77